Time;durP1;ratioP1;P1;durP2;ratioP2;P2;SDS_P1;SDS_P2;PMS_P1;PMS_P2;Temp;Humidity;BMP_temperature;BMP_pressure;BME280_temperature;BME280_humidity;BME280_pressure;Samples;Min_cycle;Max_cycle;Signal;HPM_P1;HPM_P2
2023/07/16 00:00:24;;;;;;;3.13;1.70;;;20.10;99.90;;;21.66;68.23;97461.75;5031476;28;20045;-38
2023/07/16 00:02:54;;;;;;;2.47;1.70;;;20.10;99.90;;;21.60;68.49;97472.47;5031011;28;20033;-38
2023/07/16 00:05:22;;;;;;;2.15;1.48;;;20.00;99.90;;;21.65;67.88;97485.28;5031297;28;20501;-38
2023/07/16 00:07:50;;;;;;;2.83;1.52;;;20.00;99.90;;;21.63;67.93;97490.13;5031286;28;20045;-38
2023/07/16 00:10:18;;;;;;;1.42;1.33;;;20.00;99.90;;;21.62;68.03;97494.72;5031407;28;20049;-39
2023/07/16 00:12:45;;;;;;;1.58;1.40;;;20.00;99.90;;;21.75;67.42;97499.09;5030955;28;20588;-38
2023/07/16 00:15:13;;;;;;;3.97;1.63;;;20.00;99.90;;;21.84;67.43;97504.97;5031207;28;20060;-38
2023/07/16 00:17:41;;;;;;;1.65;1.48;;;20.10;99.90;;;21.75;66.87;97506.38;5031230;28;20135;-38
2023/07/16 00:20:09;;;;;;;2.95;1.33;;;20.10;99.90;;;21.78;67.05;97506.72;5031172;28;20389;-38
2023/07/16 00:22:38;;;;;;;1.92;1.40;;;20.00;99.90;;;21.82;66.30;97499.78;5030968;28;20045;-38
2023/07/16 00:25:07;;;;;;;1.20;1.08;;;20.00;99.90;;;21.86;66.56;97499.31;5030045;28;20497;-38
2023/07/16 00:27:35;;;;;;;2.08;1.33;;;20.00;99.90;;;21.80;66.11;97490.25;5023366;28;20049;-38
2023/07/16 00:30:04;;;;;;;1.50;1.40;;;19.90;99.90;;;21.79;66.58;97488.59;5030533;28;20049;-38
2023/07/16 00:32:31;;;;;;;1.77;1.40;;;20.00;99.90;;;21.81;66.58;97508.97;5030831;28;20041;-38
2023/07/16 00:35:03;;;;;;;1.52;1.40;;;20.00;99.90;;;21.82;66.06;97512.50;5029650;28;20053;-38
2023/07/16 00:37:31;;;;;;;2.03;1.83;;;19.90;99.90;;;21.82;65.85;97499.78;5030076;28;20124;-38
2023/07/16 00:39:59;;;;;;;1.73;1.63;;;19.90;99.90;;;21.83;65.95;97508.75;5034083;28;20412;-38
2023/07/16 00:42:27;;;;;;;2.67;1.42;;;19.90;99.90;;;21.81;66.13;97492.72;5033286;28;20064;-38
2023/07/16 00:44:55;;;;;;;3.70;1.63;;;19.90;99.90;;;21.86;65.49;97504.72;5035165;28;20049;-38
2023/07/16 00:47:22;;;;;;;2.30;1.30;;;20.00;99.90;;;21.79;65.71;97500.25;5032217;28;20071;-38
2023/07/16 00:49:50;;;;;;;2.17;1.50;;;19.90;99.90;;;21.88;66.14;97484.47;5033763;28;20048;-38
2023/07/16 00:52:22;;;;;;;2.55;2.30;;;20.00;99.90;;;21.90;65.39;97486.94;5033419;28;20048;-38
2023/07/16 00:54:50;;;;;;;1.70;1.35;;;20.00;99.90;;;21.93;65.17;97478.34;5033582;28;20436;-38
2023/07/16 00:57:18;;;;;;;1.77;1.40;;;20.00;99.90;;;21.98;65.39;97473.00;5017017;28;20049;-39
2023/07/16 00:59:45;;;;;;;2.00;1.33;;;20.10;99.90;;;22.00;65.61;97498.84;5033406;28;20068;-38
2023/07/16 01:02:13;;;;;;;2.10;1.50;;;20.10;99.90;;;22.00;65.45;97525.09;5033403;28;20053;-38
2023/07/16 01:04:40;;;;;;;2.40;1.50;;;20.10;99.90;;;21.97;65.31;97531.81;5017186;28;20045;-38
2023/07/16 01:07:13;;;;;;;1.40;1.25;;;20.10;99.90;;;22.02;65.39;97539.22;5033401;28;20068;-39
2023/07/16 01:09:42;;;;;;;1.67;1.23;;;20.10;99.90;;;21.99;64.91;97545.97;5026527;28;20053;-38
2023/07/16 01:12:10;;;;;;;1.60;1.20;;;20.00;99.90;;;21.99;65.37;97543.25;5034160;28;20050;-38
2023/07/16 01:14:40;;;;;;;2.28;1.30;;;20.00;99.90;;;21.99;65.25;97543.25;5025733;28;20041;-38
2023/07/16 01:17:08;;;;;;;1.77;1.52;;;20.00;99.90;;;21.99;65.16;97551.38;5032662;28;20453;-38
2023/07/16 01:19:36;;;;;;;1.55;1.35;;;20.00;99.90;;;21.99;64.75;97542.44;5034448;28;20049;-38
2023/07/16 01:22:30;;;;;;;1.58;1.10;;;20.00;99.90;;;21.95;64.54;97558.34;5033754;28;20045;-38
2023/07/16 01:25:36;;;;;;;2.47;1.20;;;20.00;99.90;;;21.95;64.44;97544.78;5027877;28;20045;-38
2023/07/16 01:28:16;;;;;;;3.05;1.48;;;20.00;99.90;;;21.99;63.82;97542.44;5029697;28;20041;-38
2023/07/16 01:30:45;;;;;;;2.45;1.55;;;20.00;99.90;;;21.94;62.95;97566.69;5025905;28;20040;-38
2023/07/16 01:33:16;;;;;;;2.92;1.27;;;20.00;99.90;;;21.83;62.50;97571.88;5015711;28;20045;-38
2023/07/16 01:35:47;;;;;;;2.00;1.35;;;19.80;99.90;;;21.81;62.14;97563.16;5033048;28;20056;-38
2023/07/16 01:38:16;;;;;;;1.30;1.20;;;19.80;99.90;;;21.78;61.55;97576.34;5033928;28;20052;-38
2023/07/16 01:40:45;;;;;;;1.80;1.23;;;19.90;99.90;;;21.82;61.43;97583.78;5032378;28;20519;-38
2023/07/16 01:43:13;;;;;;;1.98;1.30;;;19.90;99.90;;;21.83;61.37;97582.72;5034057;28;20054;-38
2023/07/16 01:45:40;;;;;;;1.50;1.20;;;19.90;99.90;;;21.84;61.28;97575.41;5026225;28;20041;-38
2023/07/16 01:48:35;;;;;;;2.25;1.45;;;19.90;99.90;;;21.75;60.47;97564.13;5032632;28;20056;-38
2023/07/16 01:51:03;;;;;;;1.92;1.30;;;19.80;99.90;;;21.77;59.89;97551.16;5025994;28;20033;-38
2023/07/16 01:53:31;;;;;;;1.85;1.60;;;19.80;99.90;;;21.74;59.54;97543.50;5033345;28;20041;-38
2023/07/16 01:56:02;;;;;;;1.88;1.60;;;19.70;99.90;;;21.73;59.32;97554.56;5032510;28;20048;-39
2023/07/16 01:58:29;;;;;;;2.97;1.00;;;19.70;99.90;;;21.76;59.26;97573.06;5032733;28;20312;-39
2023/07/16 02:00:57;;;;;;;2.53;1.38;;;19.80;99.90;;;21.74;59.14;97596.84;5033473;28;20048;-38
2023/07/16 02:03:25;;;;;;;2.80;1.75;;;19.80;99.90;;;21.71;58.86;97598.13;5016209;28;20053;-39
2023/07/16 02:05:52;;;;;;;3.20;1.67;;;19.80;99.90;;;21.66;58.66;97602.63;5033577;28;20042;-38
2023/07/16 02:08:20;;;;;;;1.98;1.48;;;19.70;99.90;;;21.64;58.59;97583.88;5033256;28;20048;-38
2023/07/16 02:10:49;;;;;;;1.70;1.55;;;19.70;99.90;;;21.55;58.28;97569.84;5033940;28;20041;-38
2023/07/16 02:13:18;;;;;;;2.90;1.50;;;19.70;99.90;;;21.52;58.61;97564.06;5029166;28;20054;-37
2023/07/16 02:15:45;;;;;;;2.05;1.70;;;19.60;99.90;;;21.53;59.00;97569.25;5033612;28;20068;-54
2023/07/16 02:18:14;;;;;;;2.78;1.70;;;19.60;99.90;;;21.53;59.04;97577.38;5032299;28;20132;-53
2023/07/16 02:20:44;;;;;;;2.90;1.90;;;19.60;99.90;;;21.53;58.61;97584.69;5032188;28;20053;-54
2023/07/16 02:23:11;;;;;;;2.88;1.67;;;19.60;99.90;;;21.53;58.68;97574.69;5032003;28;20042;-51
2023/07/16 02:25:39;;;;;;;4.05;1.83;;;19.60;99.90;;;21.51;58.73;97555.13;5015604;28;20044;-52
2023/07/16 02:28:07;;;;;;;1.85;1.48;;;19.50;99.90;;;21.49;58.73;97569.97;5032905;28;20493;-54
2023/07/16 02:30:36;;;;;;;1.75;1.23;;;19.50;99.90;;;21.48;58.91;97584.56;5033346;28;20057;-53
2023/07/16 02:33:03;;;;;;;2.15;1.70;;;19.50;99.90;;;21.47;58.77;97591.88;5031556;28;20042;-53
2023/07/16 02:35:31;;;;;;;2.90;1.48;;;19.50;99.90;;;21.43;59.21;97583.38;5015233;28;20057;-55
2023/07/16 02:37:59;;;;;;;2.75;1.60;;;19.50;99.90;;;21.41;59.11;97598.19;5032867;28;20044;-54
2023/07/16 02:40:26;;;;;;;1.45;1.33;;;19.40;99.90;;;21.41;59.08;97604.41;5015128;28;20638;-56
2023/07/16 02:42:54;;;;;;;4.35;1.60;;;19.40;99.90;;;21.39;58.78;97597.59;5032414;28;20488;-56
2023/07/16 02:45:22;;;;;;;2.60;1.63;;;19.50;99.90;;;21.33;58.87;97601.22;5031628;28;20049;-56
2023/07/16 02:47:49;;;;;;;1.67;1.58;;;19.40;99.90;;;21.32;58.90;97589.56;5032529;28;20045;-55
2023/07/16 02:50:17;;;;;;;2.40;1.45;;;19.40;99.90;;;21.29;58.22;97591.91;5015247;28;20501;-55
2023/07/16 02:52:45;;;;;;;2.70;2.08;;;19.40;99.90;;;21.31;58.26;97584.38;5030442;28;20057;-54
2023/07/16 02:55:12;;;;;;;1.90;1.65;;;19.40;99.90;;;21.30;58.45;97580.84;5031430;28;20053;-55
2023/07/16 02:57:40;;;;;;;2.38;1.50;;;19.40;99.90;;;21.34;58.56;97582.03;5031176;28;20060;-55
2023/07/16 03:00:09;;;;;;;3.20;1.92;;;19.50;99.90;;;21.36;58.55;97589.91;5031095;28;20053;-54
2023/07/16 03:02:36;;;;;;;2.85;1.73;;;19.50;99.90;;;21.33;58.21;97580.38;5029746;28;20509;-55
2023/07/16 03:05:06;;;;;;;2.80;1.70;;;19.40;99.90;;;21.31;57.73;97571.66;5031322;28;20052;-55
2023/07/16 03:07:34;;;;;;;2.90;1.70;;;19.40;99.90;;;21.31;58.30;97578.97;5032147;28;20041;-55
2023/07/16 03:10:03;;;;;;;3.35;1.70;;;19.40;99.90;;;21.29;57.93;97591.91;5032715;28;20041;-54
2023/07/16 03:12:30;;;;;;;3.50;1.63;;;19.40;99.90;;;21.27;57.60;97607.53;5030670;28;20045;-56
2023/07/16 03:14:58;;;;;;;2.28;1.50;;;19.40;99.90;;;21.26;57.56;97622.16;5032311;28;20052;-56
2023/07/16 03:17:25;;;;;;;3.58;2.25;;;19.50;99.90;;;21.22;57.07;97625.31;5031549;28;20124;-55
2023/07/16 03:19:53;;;;;;;4.07;1.77;;;19.40;98.50;;;21.17;56.85;97627.03;5030843;28;20045;-54
2023/07/16 03:22:22;;;;;;;4.53;2.05;;;19.40;99.40;;;21.17;56.89;97630.59;5031654;28;20048;-54
2023/07/16 03:24:50;;;;;;;4.47;1.80;;;19.30;98.00;;;21.14;56.63;97635.66;5024116;28;20413;-55
2023/07/16 03:27:17;;;;;;;4.88;1.85;;;19.30;97.90;;;21.15;56.93;97612.91;5032136;28;20393;-55
2023/07/16 03:29:53;;;;;;;2.78;1.67;;;19.30;99.00;;;21.18;56.29;97620.59;5023210;28;20045;-53
2023/07/16 03:32:20;;;;;;;4.10;1.80;;;19.30;97.50;;;21.16;56.65;97620.81;5031594;28;20044;-55
2023/07/16 03:34:48;;;;;;;2.28;1.60;;;19.30;99.00;;;21.14;56.74;97616.69;5032376;28;20037;-54
2023/07/16 03:37:16;;;;;;;3.63;1.65;;;19.30;98.70;;;21.10;56.26;97632.56;5031012;28;20045;-52
2023/07/16 03:39:44;;;;;;;2.55;1.92;;;19.40;99.00;;;21.12;56.45;97630.44;5030726;28;20072;-55
2023/07/16 03:42:11;;;;;;;3.83;2.53;;;19.40;98.70;;;21.09;57.00;97632.78;5030765;28;20056;-54
2023/07/16 03:44:39;;;;;;;3.72;2.58;;;19.30;99.20;;;21.09;56.65;97638.19;5030953;28;20068;-55
2023/07/16 03:47:07;;;;;;;4.05;1.88;;;19.30;99.90;;;21.07;56.71;97654.66;5013511;28;20523;-55
2023/07/16 03:49:35;;;;;;;3.75;2.28;;;19.30;99.90;;;21.07;56.65;97651.97;5013388;28;20476;-55
2023/07/16 03:52:03;;;;;;;3.63;2.50;;;19.30;99.90;;;21.06;57.09;97660.31;5046696;28;20409;-54
2023/07/16 03:54:30;;;;;;;5.25;2.05;;;19.20;99.90;;;20.99;57.00;97672.03;5030499;28;20052;-53
2023/07/16 03:56:58;;;;;;;7.25;1.60;;;19.10;99.90;;;20.97;56.73;97676.84;5030300;28;20046;-53
2023/07/16 03:59:25;;;;;;;5.28;1.95;;;19.10;99.90;;;20.94;57.09;97688.16;5031633;28;20053;-52
2023/07/16 04:01:53;;;;;;;5.40;1.85;;;19.00;99.90;;;20.89;56.75;97704.22;5031562;28;20041;-54
2023/07/16 04:04:21;;;;;;;4.72;2.30;;;18.90;99.90;;;20.84;56.83;97712.22;5031652;28;20053;-53
2023/07/16 04:06:49;;;;;;;5.65;2.80;;;18.90;99.90;;;20.82;57.16;97719.69;5030312;28;20045;-53
2023/07/16 04:09:16;;;;;;;6.43;2.47;;;18.90;99.90;;;20.81;56.81;97715.34;5031590;28;20041;-54
2023/07/16 04:11:44;;;;;;;6.10;3.60;;;18.80;99.90;;;20.83;56.80;97713.25;5031051;28;20046;-56
2023/07/16 04:14:12;;;;;;;4.78;1.98;;;18.90;99.90;;;20.83;56.34;97710.53;5031180;28;20053;-54
2023/07/16 04:16:39;;;;;;;3.45;2.45;;;18.90;99.20;;;20.81;56.40;97702.66;5031490;28;20072;-52
2023/07/16 04:19:09;;;;;;;5.25;2.67;;;19.00;99.00;;;20.85;56.58;97705.72;5030997;28;20045;-53
2023/07/16 04:21:39;;;;;;;4.07;2.13;;;19.00;99.00;;;20.88;56.39;97696.31;5029697;28;20057;-52
2023/07/16 04:24:07;;;;;;;4.20;2.20;;;19.10;98.40;;;20.89;56.29;97687.16;5031446;28;20053;-53
2023/07/16 04:26:35;;;;;;;4.38;2.10;;;19.10;98.20;;;20.90;56.38;97692.38;5031196;28;20045;-55
2023/07/16 04:29:04;;;;;;;2.83;1.88;;;19.20;97.60;;;20.93;56.21;97691.06;5031172;28;20041;-52
2023/07/16 04:31:32;;;;;;;3.42;2.00;;;19.20;97.30;;;20.94;55.94;97690.03;5030956;28;20037;-54
2023/07/16 04:33:59;;;;;;;5.28;2.20;;;19.20;97.00;;;20.93;56.09;97680.25;5031337;28;20041;-56
2023/07/16 04:36:27;;;;;;;2.67;1.70;;;19.20;96.80;;;20.95;56.10;97683.56;5031191;28;20421;-54
2023/07/16 04:38:54;;;;;;;5.00;2.33;;;19.20;97.20;;;20.93;55.67;97702.72;5013308;28;20061;-54
2023/07/16 04:41:22;;;;;;;6.13;2.42;;;19.20;95.60;;;20.94;56.00;97717.09;5030938;28;20054;-55
2023/07/16 04:43:50;;;;;;;4.75;2.13;;;19.20;95.80;;;20.92;55.83;97725.44;5030099;28;20069;-55
2023/07/16 04:46:17;;;;;;;2.78;1.75;;;19.10;95.70;;;20.92;55.48;97735.41;5030784;28;20045;-56
2023/07/16 04:48:46;;;;;;;6.85;2.75;;;19.20;95.60;;;20.95;55.30;97734.97;5031132;28;20034;-51
2023/07/16 04:51:13;;;;;;;7.65;2.30;;;19.20;93.60;;;20.98;55.36;97745.34;5030026;28;20041;-56
2023/07/16 04:53:41;;;;;;;5.88;2.42;;;19.30;93.70;;;20.96;55.19;97748.28;5031197;28;20493;-53
2023/07/16 04:56:13;;;;;;;7.20;2.20;;;19.30;94.50;;;20.96;55.31;97750.16;5030911;28;20054;-56
2023/07/16 04:58:42;;;;;;;2.90;2.03;;;19.20;94.00;;;20.96;55.07;97748.28;5031135;28;20054;-55
2023/07/16 05:01:10;;;;;;;3.15;1.80;;;19.20;94.90;;;20.94;55.45;97747.69;5030725;28;20520;-53
2023/07/16 05:03:38;;;;;;;7.13;2.08;;;19.20;95.30;;;20.96;55.63;97748.28;5029643;28;20057;-54
2023/07/16 05:06:06;;;;;;;8.40;2.30;;;19.20;96.00;;;21.00;55.22;97737.84;5030753;28;20117;-51
2023/07/16 05:08:33;;;;;;;4.15;2.30;;;19.20;95.90;;;21.02;54.90;97743.84;5030844;28;20041;-53
2023/07/16 05:11:01;;;;;;;5.47;1.95;;;19.30;94.70;;;21.03;54.95;97749.03;5030691;28;20057;-55
2023/07/16 05:13:29;;;;;;;4.85;2.00;;;19.30;92.90;;;20.99;55.10;97755.09;5031056;28;20053;-55
2023/07/16 05:15:57;;;;;;;4.97;2.22;;;19.30;94.30;;;21.00;54.74;97746.78;5029192;28;20049;-52
2023/07/16 05:18:24;;;;;;;4.68;2.30;;;19.30;91.80;;;21.07;54.30;97751.28;5030897;28;20057;-55
2023/07/16 05:20:52;;;;;;;7.90;2.03;;;19.30;92.60;;;21.09;54.44;97752.69;5030557;28;20068;-55
2023/07/16 05:23:20;;;;;;;4.50;1.80;;;19.40;92.20;;;21.10;54.30;97754.38;5029336;28;20054;-53
2023/07/16 05:25:50;;;;;;;4.30;2.42;;;19.40;91.50;;;20.98;53.57;97737.25;5032039;28;20519;-53
2023/07/16 05:28:19;;;;;;;5.45;2.30;;;19.30;88.20;;;21.01;53.53;97745.75;5034416;28;20048;-52
2023/07/16 05:30:46;;;;;;;5.47;2.65;;;19.30;90.30;;;21.08;53.67;97745.66;5034211;28;20046;-54
2023/07/16 05:33:14;;;;;;;7.03;2.00;;;19.40;89.40;;;21.08;53.71;97752.94;5033857;28;20606;-55
2023/07/16 05:35:41;;;;;;;9.25;2.30;;;19.40;90.40;;;21.05;53.62;97762.31;5034192;28;20049;-50
2023/07/16 05:38:09;;;;;;;4.05;2.00;;;19.40;90.20;;;21.07;53.70;97764.81;5034137;28;20049;-55
2023/07/16 05:40:37;;;;;;;7.07;2.40;;;19.40;90.30;;;21.09;53.81;97757.28;5034217;28;20057;-54
2023/07/16 05:43:04;;;;;;;5.97;2.75;;;19.40;90.70;;;21.13;53.23;97761.19;5034119;28;20049;-52
2023/07/16 05:45:32;;;;;;;5.40;2.20;;;19.40;89.10;;;21.14;53.54;97768.28;5033689;28;20515;-54
2023/07/16 05:47:59;;;;;;;4.85;2.40;;;19.50;89.40;;;21.19;53.59;97771.13;5033742;28;20049;-52
2023/07/16 05:50:27;;;;;;;3.90;1.90;;;19.50;90.00;;;21.24;53.20;97777.50;5034165;28;20049;-55
2023/07/16 05:52:55;;;;;;;10.70;2.53;;;19.60;88.30;;;21.30;53.10;97783.06;5032548;28;20041;-54
2023/07/16 05:55:22;;;;;;;5.85;2.30;;;19.70;89.20;;;21.34;53.08;97778.84;5033639;28;20041;-53
2023/07/16 05:57:50;;;;;;;6.68;2.70;;;19.70;87.80;;;21.35;53.23;97781.34;5033940;28;20424;-52
2023/07/16 06:00:18;;;;;;;4.18;1.92;;;19.80;87.60;;;21.34;52.53;97784.28;5033806;28;20489;-55
2023/07/16 06:02:46;;;;;;;4.03;2.10;;;19.70;86.40;;;21.36;52.66;97785.69;5033935;28;20046;-54
2023/07/16 06:05:13;;;;;;;5.78;2.75;;;19.70;87.20;;;21.39;52.08;97771.72;5033780;28;20056;-53
2023/07/16 06:07:41;;;;;;;5.18;2.30;;;19.70;87.20;;;21.43;52.52;97767.53;5032247;28;20046;-52
2023/07/16 06:10:09;;;;;;;3.85;2.30;;;19.80;86.70;;;21.49;52.37;97775.81;5033765;28;20046;-53
2023/07/16 06:12:36;;;;;;;5.93;1.90;;;19.80;86.90;;;21.50;52.36;97772.03;5033439;28;20041;-51
2023/07/16 06:15:05;;;;;;;4.65;2.08;;;19.80;87.20;;;21.50;52.62;97777.44;5033502;28;20045;-51
2023/07/16 06:17:33;;;;;;;3.97;2.38;;;19.80;87.20;;;21.54;52.17;97770.50;5033409;28;20053;-51
2023/07/16 06:20:02;;;;;;;5.32;3.00;;;19.80;86.40;;;21.56;51.87;97785.50;5032160;28;20050;-53
2023/07/16 06:22:29;;;;;;;5.32;2.40;;;19.90;85.80;;;21.60;51.72;97789.41;5033211;28;20055;-48
2023/07/16 06:24:57;;;;;;;3.85;2.30;;;19.90;86.30;;;21.62;52.04;97784.56;5032908;28;20049;-49
2023/07/16 06:27:25;;;;;;;4.20;1.85;;;19.90;87.10;;;21.66;52.02;97790.38;5033343;28;20049;-38
2023/07/16 06:29:53;;;;;;;4.50;1.88;;;20.00;86.50;;;21.69;51.84;97791.78;5033228;28;20041;-38
2023/07/16 06:32:21;;;;;;;3.47;2.00;;;20.00;87.10;;;21.63;51.48;97796.22;5033275;28;20045;-38
2023/07/16 06:34:48;;;;;;;5.90;2.20;;;19.90;85.80;;;21.61;51.54;97784.78;5030522;28;20041;-39
2023/07/16 06:37:16;;;;;;;4.30;2.20;;;19.90;86.50;;;21.62;51.89;97787.28;5030560;28;20053;-38
2023/07/16 06:39:43;;;;;;;3.78;2.15;;;19.90;86.80;;;21.67;51.84;97791.19;5030477;28;20069;-38
2023/07/16 06:42:11;;;;;;;5.82;2.40;;;20.00;86.30;;;21.70;52.15;97788.03;5032258;28;20064;-38
2023/07/16 06:44:39;;;;;;;6.20;2.25;;;20.00;86.90;;;21.72;52.12;97792.16;5031002;28;20056;-38
2023/07/16 06:47:06;;;;;;;6.30;2.75;;;20.10;87.00;;;21.74;52.32;97800.06;5031350;28;20045;-38
2023/07/16 06:49:34;;;;;;;6.20;2.10;;;20.10;87.40;;;21.74;52.10;97794.63;5031405;28;20417;-38
2023/07/16 06:52:02;;;;;;;5.00;2.58;;;20.10;85.90;;;21.71;52.03;97786.97;5031207;28;20053;-38
2023/07/16 06:54:29;;;;;;;4.78;2.10;;;20.00;86.90;;;21.72;51.34;97797.56;5030612;28;20069;-40
2023/07/16 06:56:58;;;;;;;6.35;2.17;;;20.10;85.60;;;21.70;51.67;97794.25;5029395;28;20049;-39
2023/07/16 06:59:25;;;;;;;3.65;2.20;;;20.20;85.30;;;21.71;51.92;97793.19;5025159;28;20075;-39
2023/07/16 07:01:53;;;;;;;2.50;1.85;;;20.20;84.60;;;21.67;51.56;97793.91;5029300;28;20048;-39
2023/07/16 07:04:21;;;;;;;5.80;2.20;;;20.10;85.10;;;21.68;51.85;97803.69;5031469;28;20045;-40
2023/07/16 07:06:48;;;;;;;4.43;2.60;;;20.10;85.10;;;21.67;51.54;97804.72;5031205;28;20269;-39
2023/07/16 07:09:16;;;;;;;7.40;2.05;;;20.10;84.80;;;21.59;51.16;97808.56;5031554;28;20716;-39
2023/07/16 07:11:43;;;;;;;5.75;2.30;;;20.00;84.70;;;21.55;50.98;97794.66;5031137;28;20041;-39
2023/07/16 07:14:11;;;;;;;7.05;2.60;;;19.90;84.20;;;21.55;51.31;97791.94;5022938;28;20501;-39
2023/07/16 07:16:39;;;;;;;3.58;1.80;;;19.90;84.40;;;21.51;51.66;97784.53;5030133;28;20421;-39
2023/07/16 07:19:08;;;;;;;5.22;2.35;;;19.90;84.30;;;21.50;51.72;97790.97;5029083;28;20041;-39
2023/07/16 07:21:36;;;;;;;4.40;2.53;;;19.90;85.30;;;21.52;51.68;97784.31;5030999;28;20049;-39
2023/07/16 07:24:05;;;;;;;5.18;2.38;;;20.00;85.70;;;21.52;51.26;97797.84;5031420;28;20045;-40
2023/07/16 07:26:33;;;;;;;5.65;2.55;;;19.90;85.50;;;21.52;51.27;97800.56;5030875;28;20049;-40
2023/07/16 07:29:00;;;;;;;3.20;2.72;;;20.00;82.70;;;21.56;50.55;97795.50;5030895;28;20044;-39
2023/07/16 07:31:28;;;;;;;5.55;1.92;;;20.00;81.30;;;21.53;50.29;97799.47;5029210;28;20044;-39
2023/07/16 07:33:57;;;;;;;5.57;2.00;;;20.00;81.00;;;21.57;50.42;97799.84;5030969;28;20037;-39
2023/07/16 07:36:24;;;;;;;4.28;1.95;;;20.10;82.10;;;21.62;50.57;97806.25;5031013;28;20041;-39
2023/07/16 07:38:52;;;;;;;3.33;2.10;;;20.20;81.80;;;21.70;50.63;97812.41;5030328;28;20156;-39
2023/07/16 07:41:20;;;;;;;4.82;2.22;;;20.20;82.90;;;21.79;50.28;97825.41;5029309;28;20049;-39
2023/07/16 07:43:47;;;;;;;3.28;1.80;;;20.40;80.50;;;21.89;49.88;97816.72;5030747;28;20117;-39
2023/07/16 07:46:15;;;;;;;5.80;2.15;;;20.40;79.10;;;21.90;49.78;97801.28;5021572;28;20048;-39
2023/07/16 07:48:43;;;;;;;6.65;2.20;;;20.40;78.90;;;21.94;50.24;97803.31;5029708;28;20037;-39
2023/07/16 07:51:11;;;;;;;5.53;2.25;;;20.50;81.30;;;22.06;49.89;97806.03;5030287;28;20041;-39
2023/07/16 07:53:39;;;;;;;4.40;1.98;;;20.60;80.20;;;22.07;49.72;97815.84;5030057;28;20053;-39
2023/07/16 07:56:06;;;;;;;4.00;2.30;;;20.60;79.50;;;22.11;50.09;97810.78;5030298;28;20045;-39
2023/07/16 07:58:34;;;;;;;3.42;1.83;;;20.70;80.30;;;22.17;49.46;97818.81;5029863;28;20056;-39
2023/07/16 08:01:06;;;;;;;4.80;2.28;;;20.70;79.40;;;22.23;48.86;97828.72;5029231;28;20037;-40
2023/07/16 08:03:34;;;;;;;3.42;2.08;;;20.70;75.50;;;22.29;48.25;97818.88;5030585;28;20049;-39
2023/07/16 08:06:02;;;;;;;4.75;2.10;;;20.80;75.90;;;22.32;47.81;97825.75;5029480;28;20037;-39
2023/07/16 08:08:30;;;;;;;4.50;2.35;;;20.90;74.50;;;22.31;48.09;97830.31;5030021;28;20413;-39
2023/07/16 08:10:57;;;;;;;6.10;2.20;;;20.80;72.80;;;22.29;48.29;97813.44;5030019;28;20037;-39
2023/07/16 08:13:25;;;;;;;6.32;2.75;;;20.80;76.70;;;22.30;47.63;97820.53;5025391;28;20049;-39
2023/07/16 08:15:53;;;;;;;4.28;2.35;;;20.80;74.50;;;22.31;47.82;97807.81;5028665;28;20413;-39
2023/07/16 08:18:20;;;;;;;6.30;2.13;;;20.90;75.10;;;22.27;47.42;97804.72;5030824;28;20040;-39
2023/07/16 08:20:48;;;;;;;5.20;1.70;;;20.90;73.10;;;22.30;47.60;97811.59;5031133;28;20053;-39
2023/07/16 08:23:16;;;;;;;6.60;2.30;;;20.90;73.80;;;22.41;47.88;97819.75;5030979;28;20050;-39
2023/07/16 08:25:44;;;;;;;4.82;2.15;;;21.10;74.10;;;22.48;47.24;97818.81;5014162;28;20065;-39
2023/07/16 08:28:12;;;;;;;6.95;3.05;;;21.20;73.10;;;22.47;47.02;97812.56;5031462;28;20045;-39
2023/07/16 08:30:39;;;;;;;4.97;2.35;;;21.10;70.50;;;22.45;46.72;97805.69;5030732;28;20025;-39
2023/07/16 08:33:07;;;;;;;2.35;1.77;;;21.00;71.80;;;22.51;46.97;97792.03;5031170;28;20049;-39
2023/07/16 08:35:35;;;;;;;6.88;2.38;;;21.10;72.70;;;22.49;46.16;97785.19;5031084;28;20045;-39
2023/07/16 08:38:02;;;;;;;3.85;2.13;;;21.00;70.00;;;22.45;46.21;97803.84;5031147;28;20041;-39
2023/07/16 08:40:31;;;;;;;5.68;1.95;;;21.00;68.30;;;22.46;46.48;97799.22;5030818;28;20408;-39
2023/07/16 08:42:59;;;;;;;2.83;1.90;;;21.10;67.90;;;22.44;45.97;97804.06;5030190;28;20047;-39
2023/07/16 08:45:29;;;;;;;3.25;2.28;;;21.10;66.30;;;22.43;46.44;97797.81;5030068;28;20516;-40
2023/07/16 08:47:57;;;;;;;3.65;2.50;;;21.10;67.50;;;22.40;46.18;97795.56;5029563;28;20497;-39
2023/07/16 08:50:26;;;;;;;5.45;1.95;;;21.00;66.10;;;22.42;46.07;97801.56;5031375;28;20041;-39
2023/07/16 08:52:57;;;;;;;5.40;2.15;;;21.00;66.20;;;22.35;46.20;97817.13;5030054;28;20049;-39
2023/07/16 08:55:25;;;;;;;4.65;2.50;;;20.90;66.30;;;22.41;46.37;97816.19;5021987;28;20049;-39
2023/07/16 08:57:53;;;;;;;5.05;2.13;;;20.90;66.80;;;22.35;46.51;97822.53;5029720;28;20037;-39
2023/07/16 09:00:22;;;;;;;4.65;1.85;;;20.90;67.30;;;22.33;46.60;97827.38;5033160;28;20041;-51
2023/07/16 09:02:51;;;;;;;5.28;2.75;;;20.90;66.70;;;22.39;46.58;97826.44;5033181;28;20045;-49
2023/07/16 09:05:21;;;;;;;2.85;1.83;;;21.00;66.90;;;22.48;46.41;97824.22;5033122;28;20045;-49
2023/07/16 09:08:07;;;;;;;4.72;1.67;;;21.10;67.30;;;22.57;46.31;97818.22;5034097;28;20046;-50
2023/07/16 09:10:35;;;;;;;5.78;2.10;;;21.30;65.50;;;22.64;46.04;97820.00;5034675;28;20052;-51
2023/07/16 09:13:03;;;;;;;5.75;2.03;;;21.30;64.80;;;22.60;45.81;97825.06;5033581;28;20041;-50
2023/07/16 09:15:30;;;;;;;4.68;2.47;;;21.20;64.40;;;22.66;46.24;97826.84;5034479;28;20524;-52
2023/07/16 09:17:58;;;;;;;3.65;2.10;;;21.30;65.40;;;22.68;46.09;97829.31;5033615;28;20045;-52
2023/07/16 09:20:33;;;;;;;3.58;2.28;;;21.30;65.00;;;22.73;45.59;97819.41;5026399;28;20041;-48
2023/07/16 09:23:00;;;;;;;5.40;2.20;;;21.30;64.60;;;22.83;45.75;97816.13;5032952;28;20112;-53
2023/07/16 09:25:29;;;;;;;3.65;2.03;;;21.30;64.90;;;22.94;45.94;97828.03;5034328;28;20045;-53
2023/07/16 09:28:03;;;;;;;5.03;1.83;;;21.40;64.70;;;23.04;45.51;97822.88;5034439;28;20045;-50
2023/07/16 09:30:34;;;;;;;4.10;2.05;;;21.60;63.40;;;23.12;44.90;97813.53;5026016;28;20092;-39
2023/07/16 09:33:20;;;;;;;4.85;2.10;;;21.70;61.80;;;23.21;45.01;97824.88;5040537;28;20041;-39
2023/07/16 09:35:51;;;;;;;4.15;1.60;;;21.70;61.80;;;23.30;44.51;97818.84;5034151;28;20049;-39
2023/07/16 09:38:18;;;;;;;3.72;2.15;;;21.80;60.90;;;23.33;44.96;97810.19;5033968;28;20072;-39
2023/07/16 09:40:46;;;;;;;2.72;1.92;;;21.90;61.10;;;23.32;44.27;97807.72;5032770;28;20048;-39
2023/07/16 09:43:14;;;;;;;3.75;2.00;;;22.10;60.20;;;23.38;43.47;97809.50;5033269;28;20056;-39
2023/07/16 09:45:43;;;;;;;4.68;1.98;;;22.10;59.40;;;23.41;43.68;97803.56;5033783;28;20038;-39
2023/07/16 09:48:12;;;;;;;8.90;2.42;;;22.10;59.40;;;23.37;43.93;97811.38;5033282;28;20045;-40
2023/07/16 09:50:50;;;;;;;3.17;2.25;;;22.10;60.20;;;23.44;43.43;97808.53;5033339;28;20468;-40
2023/07/16 09:53:20;;;;;;;6.80;2.47;;;22.10;59.00;;;23.52;44.02;97799.19;5033102;28;20060;-40
2023/07/16 09:55:49;;;;;;;3.67;2.33;;;22.20;59.90;;;23.56;43.84;97798.44;5033905;28;20101;-39
2023/07/16 09:58:19;;;;;;;3.30;2.63;;;22.30;60.00;;;23.65;44.01;97806.22;5033465;28;20049;-40
2023/07/16 10:00:48;;;;;;;5.80;2.80;;;22.40;59.90;;;23.71;43.95;97808.81;5036887;28;20430;-39
2023/07/16 10:03:18;;;;;;;3.85;2.47;;;22.50;59.80;;;23.73;44.11;97813.97;5033550;28;20056;-40
2023/07/16 10:05:46;;;;;;;4.35;2.17;;;22.40;60.00;;;23.65;43.40;97814.38;5033630;28;20048;-40
2023/07/16 10:08:21;;;;;;;5.88;2.67;;;22.30;59.00;;;23.63;43.04;97811.06;5024086;28;20052;-40
2023/07/16 10:10:54;;;;;;;4.05;2.67;;;22.30;57.40;;;23.64;43.19;97815.44;5032131;28;20045;-40
2023/07/16 10:13:23;;;;;;;;;;;22.30;58.60;;;23.68;43.45;97811.16;5031360;28;20424;-41
2023/07/16 10:15:58;;;;;;;5.72;2.92;;;22.30;57.60;;;23.78;42.68;97814.94;5031166;28;19928;-41
2023/07/16 10:18:31;;;;;;;4.28;2.25;;;22.30;57.70;;;23.79;42.77;97821.22;5032468;28;20076;-41
2023/07/16 10:21:02;;;;;;;4.60;2.17;;;22.40;57.70;;;23.90;43.31;97816.78;5033174;28;20064;-40
2023/07/16 10:23:41;;;;;;;5.25;2.15;;;22.60;58.30;;;23.93;42.10;97813.59;5033189;28;20040;-41
2023/07/16 10:26:15;;;;;;;3.13;2.03;;;22.80;56.20;;;23.91;42.12;97813.00;5033188;28;20046;-40